createdAt,value
2023-04-25T00:01:29.756Z,64.96
2023-04-25T00:04:34.920Z,65.14
2023-04-25T00:07:37.953Z,64.85
2023-04-25T00:10:40.655Z,64.51
2023-04-25T00:13:43.819Z,64.77
2023-04-25T00:16:46.556Z,64.34
2023-04-25T00:19:50.975Z,64.22
2023-04-25T00:22:56.843Z,63.83
2023-04-25T00:25:59.648Z,63.97
2023-04-25T00:29:03.093Z,64.08
2023-04-25T00:32:06.069Z,64.21
2023-04-25T00:35:11.436Z,63.76
2023-04-25T00:38:14.032Z,64.24
2023-04-25T00:41:17.155Z,64.29
2023-04-25T00:44:20.114Z,64.43
2023-04-25T00:47:23.826Z,64.50
2023-04-25T00:50:26.765Z,64.31
2023-04-25T00:53:30.736Z,63.97
2023-04-25T00:56:33.616Z,64.17
2023-04-25T00:59:37.526Z,63.79
2023-04-25T01:02:41.939Z,63.54
2023-04-25T01:05:45.012Z,64.60
2023-04-25T01:08:49.790Z,63.86
2023-04-25T01:11:52.543Z,63.83
2023-04-25T01:14:56.499Z,63.86
2023-04-25T01:17:59.508Z,64.06
2023-04-25T01:21:08.751Z,64.01
2023-04-25T01:24:13.176Z,64.22
2023-04-25T01:27:16.858Z,63.84
2023-04-25T01:30:21.821Z,64.15
2023-04-25T01:33:24.543Z,63.43
2023-04-25T01:36:28.202Z,63.44
2023-04-25T01:39:31.357Z,63.83
2023-04-25T01:42:35.420Z,63.89
2023-04-25T01:45:42.283Z,64.20
2023-04-25T01:48:47.268Z,64.31
2023-04-25T01:51:50.107Z,64.40
2023-04-25T01:54:53.828Z,64.59
2023-04-25T01:57:56.448Z,64.84
2023-04-25T02:01:09.168Z,64.89
2023-04-25T02:04:19.462Z,65.12
2023-04-25T02:07:22.336Z,64.76
2023-04-25T02:10:28.546Z,64.42
2023-04-25T02:13:41.469Z,64.39
2023-04-25T02:16:58.453Z,63.95
2023-04-25T02:20:01.515Z,63.99
2023-04-25T02:23:07.480Z,64.14
2023-04-25T02:26:10.242Z,64.06
2023-04-25T02:29:12.840Z,63.97
2023-04-25T02:32:15.546Z,63.65
2023-04-25T02:35:18.408Z,64.14
2023-04-25T02:38:22.133Z,63.60
2023-04-25T02:41:24.760Z,63.20
2023-04-25T02:44:27.939Z,63.17
2023-04-25T02:47:30.997Z,62.98
2023-04-25T02:50:33.631Z,63.18
2023-04-25T02:53:36.894Z,62.36
2023-04-25T02:56:39.522Z,61.64
2023-04-25T02:59:47.308Z,61.99
2023-04-25T03:02:50.178Z,61.72
2023-04-25T03:05:53.530Z,61.41
2023-04-25T03:09:01.348Z,61.03
2023-04-25T03:12:04.332Z,61.45
2023-04-25T03:15:08.983Z,61.27
2023-04-25T03:18:12.623Z,61.95
2023-04-25T03:21:16.062Z,62.37
2023-04-25T03:24:18.812Z,62.51
2023-04-25T03:27:21.564Z,62.46
2023-04-25T03:30:24.418Z,62.41
2023-04-25T03:33:27.331Z,62.64
2023-04-25T03:36:30.451Z,62.25
2023-04-25T03:39:33.195Z,62.43
2023-04-25T03:42:35.868Z,62.46
2023-04-25T03:45:38.844Z,62.51
2023-04-25T03:48:41.527Z,62.68
2023-04-25T03:51:46.611Z,62.80
2023-04-25T03:54:49.874Z,62.54
2023-04-25T03:57:55.599Z,62.93
2023-04-25T04:01:02.198Z,62.41
2023-04-25T04:04:06.663Z,62.79
2023-04-25T04:07:11.333Z,62.86
2023-04-25T04:10:17.132Z,62.68
2023-04-25T04:13:20.440Z,62.72
2023-04-25T04:16:23.410Z,62.45
2023-04-25T04:19:27.138Z,62.22
2023-04-25T04:22:39.933Z,62.39
2023-04-25T04:25:50.375Z,62.61
2023-04-25T04:29:12.955Z,63.32
2023-04-25T04:32:31.558Z,64.20
2023-04-25T04:35:35.043Z,64.20
2023-04-25T04:38:59.455Z,64.31
2023-04-25T04:42:12.557Z,64.64
2023-04-25T04:45:33.421Z,64.85
2023-04-25T04:48:57.483Z,64.73
2023-04-25T04:52:19.468Z,64.06
2023-04-25T04:55:38.847Z,64.38
2023-04-25T04:58:59.009Z,64.40
2023-04-25T05:02:07.673Z,65.15
2023-04-25T05:05:41.109Z,65.16
2023-04-25T05:09:01.977Z,66.04
2023-04-25T05:12:37.725Z,66.25
2023-04-25T05:16:13.869Z,66.51
2023-04-25T05:19:26.010Z,66.53
2023-04-25T05:22:49.435Z,67.12
2023-04-25T05:26:15.152Z,67.56
2023-04-25T05:29:30.757Z,67.30
2023-04-25T05:32:51.491Z,67.53
2023-04-25T05:35:55.898Z,67.48
2023-04-25T05:38:59.454Z,68.01
2023-04-25T05:42:37.310Z,67.25
2023-04-25T05:46:09.595Z,67.74
2023-04-25T05:49:28.178Z,68.43
2023-04-25T05:52:49.541Z,68.86
2023-04-25T05:56:06.502Z,69.57
2023-04-25T05:59:09.441Z,69.53
2023-04-25T06:02:12.259Z,69.13
2023-04-25T06:05:15.575Z,69.26
2023-04-25T06:08:20.156Z,69.29
2023-04-25T06:11:23.218Z,69.30
2023-04-25T06:14:28.267Z,68.54
2023-04-25T06:17:32.384Z,67.98
2023-04-25T06:20:36.172Z,68.17
2023-04-25T06:23:39.057Z,67.62
2023-04-25T06:26:43.814Z,67.47
2023-04-25T06:29:46.617Z,67.25
2023-04-25T06:32:50.534Z,66.19
2023-04-25T06:35:53.849Z,65.51
2023-04-25T06:39:00.838Z,65.77
2023-04-25T06:42:03.642Z,65.55
2023-04-25T06:45:35.656Z,65.09
2023-04-25T06:48:38.629Z,64.82
2023-04-25T06:51:42.611Z,64.07
2023-04-25T06:54:46.143Z,63.70
2023-04-25T06:58:00.173Z,63.59
2023-04-25T07:01:25.842Z,63.46
2023-04-25T07:04:29.216Z,62.75
2023-04-25T07:07:34.178Z,62.65
2023-04-25T07:10:37.256Z,62.01
2023-04-25T07:13:40.305Z,63.09
2023-04-25T07:16:44.553Z,62.19
2023-04-25T07:19:47.440Z,62.03
2023-04-25T07:22:51.214Z,61.70
2023-04-25T07:25:55.259Z,61.83
2023-04-25T07:29:01.284Z,61.49
2023-04-25T07:32:04.189Z,60.87
2023-04-25T07:35:10.151Z,60.19
2023-04-25T07:38:13.050Z,59.90
2023-04-25T07:41:16.349Z,59.43
2023-04-25T07:44:21.048Z,58.60
2023-04-25T07:47:24.196Z,58.31
2023-04-25T07:50:28.557Z,58.00
2023-04-25T07:53:32.336Z,57.28
2023-04-25T07:56:51.465Z,55.99
2023-04-25T07:59:56.279Z,57.06
2023-04-25T08:02:59.333Z,54.87
2023-04-25T08:06:04.834Z,54.47
2023-04-25T08:09:16.756Z,52.20
2023-04-25T08:12:20.628Z,50.77
2023-04-25T08:15:26.478Z,49.05
2023-04-25T08:18:29.485Z,48.46
2023-04-25T08:21:32.547Z,47.59
2023-04-25T08:24:39.501Z,48.81
2023-04-25T08:27:43.273Z,47.84
2023-04-25T08:30:46.845Z,48.56
2023-04-25T08:33:53.039Z,49.73
2023-04-25T08:37:11.706Z,49.04
2023-04-25T08:40:27.193Z,48.14
2023-04-25T08:43:45.027Z,47.66
2023-04-25T08:46:50.945Z,46.85
2023-04-25T08:50:07.728Z,45.90
2023-04-25T08:53:19.848Z,46.31
2023-04-25T08:56:24.371Z,46.77
2023-04-25T08:59:27.561Z,48.00
2023-04-25T09:02:31.265Z,48.03
2023-04-25T09:05:35.201Z,47.58
2023-04-25T09:08:38.876Z,46.58
2023-04-25T09:11:44.498Z,45.14
2023-04-25T09:15:05.353Z,44.01
2023-04-25T09:18:36.002Z,43.47
2023-04-25T09:21:38.926Z,42.57
2023-04-25T09:24:44.819Z,41.89
2023-04-25T09:27:55.360Z,41.73
2023-04-25T09:31:02.954Z,42.72
2023-04-25T09:34:16.696Z,40.20
2023-04-25T09:37:29.627Z,39.32
2023-04-25T09:40:46.471Z,39.84
2023-04-25T09:44:00.328Z,41.89
2023-04-25T09:47:11.705Z,42.18
2023-04-25T09:50:20.410Z,41.39
2023-04-25T09:53:29.743Z,40.48
2023-04-25T09:56:49.284Z,39.65
2023-04-25T09:59:53.919Z,38.18
2023-04-25T10:02:58.512Z,37.73
2023-04-25T10:06:29.390Z,36.37
2023-04-25T10:09:34.971Z,35.14
2023-04-25T10:12:38.467Z,34.83
2023-04-25T10:15:42.499Z,37.55
2023-04-25T10:18:45.663Z,38.58
2023-04-25T10:21:53.168Z,39.68
2023-04-25T10:24:57.521Z,40.36
2023-04-25T10:28:00.957Z,40.53
2023-04-25T10:31:05.766Z,40.99
2023-04-25T10:34:08.624Z,41.05
2023-04-25T10:37:12.372Z,41.04
2023-04-25T10:40:22.488Z,40.45
2023-04-25T10:43:37.336Z,38.50
2023-04-25T10:46:40.018Z,36.05
2023-04-25T10:49:43.958Z,35.41
2023-04-25T10:52:46.712Z,32.91
2023-04-25T10:55:52.818Z,32.50
2023-04-25T10:59:11.221Z,32.82
2023-04-25T11:02:14.712Z,33.27
2023-04-25T11:05:57.763Z,32.16
2023-04-25T11:09:03.179Z,31.67
2023-04-25T11:12:08.451Z,31.53
2023-04-25T11:15:11.433Z,29.58
2023-04-25T11:18:17.365Z,25.43
2023-04-25T11:21:20.064Z,22.11
2023-04-25T11:24:28.680Z,23.92
2023-04-25T11:27:31.431Z,25.65
2023-04-25T11:30:34.265Z,25.67
2023-04-25T11:33:37.119Z,21.65
2023-04-25T11:36:40.266Z,19.39
2023-04-25T11:39:49.581Z,19.81
2023-04-25T11:42:52.490Z,20.17
2023-04-25T11:45:58.053Z,24.87
2023-04-25T11:49:00.904Z,27.96
2023-04-25T11:52:03.891Z,30.62
2023-04-25T11:55:20.641Z,31.08
2023-04-25T11:58:23.396Z,31.45
2023-04-25T12:01:31.570Z,31.29
2023-04-25T12:04:37.561Z,31.50
2023-04-25T12:07:42.183Z,31.99
2023-04-25T12:10:46.776Z,32.10
2023-04-25T12:13:54.368Z,33.47
2023-04-25T12:16:59.037Z,31.61
2023-04-25T12:20:13.328Z,27.89
2023-04-25T12:23:16.458Z,23.40
2023-04-25T12:26:21.920Z,19.21
2023-04-25T12:29:29.524Z,17.63
2023-04-25T12:32:34.615Z,14.75
2023-04-25T12:35:37.286Z,14.84
2023-04-25T12:38:43.163Z,18.51
2023-04-25T12:41:46.681Z,18.71
2023-04-25T12:44:49.461Z,17.54
2023-04-25T12:47:52.155Z,16.08
2023-04-25T12:50:54.950Z,13.09
2023-04-25T12:53:57.628Z,12.15
2023-04-25T12:57:00.325Z,11.82
2023-04-25T13:00:03.107Z,11.21
2023-04-25T13:03:08.324Z,11.65
2023-04-25T13:06:11.692Z,10.96
2023-04-25T13:09:14.322Z,11.31
2023-04-25T13:12:17.110Z,10.96
2023-04-25T13:15:19.737Z,11.03
2023-04-25T13:18:22.638Z,11.10
2023-04-25T13:21:25.308Z,11.04
2023-04-25T13:24:29.231Z,15.22
2023-04-25T13:27:33.691Z,14.71
2023-04-25T13:30:36.548Z,13.95
2023-04-25T13:33:39.203Z,12.74
2023-04-25T13:36:41.834Z,14.07
2023-04-25T13:39:44.419Z,12.11
2023-04-25T13:42:48.067Z,11.25
2023-04-25T13:45:51.712Z,12.64
2023-04-25T13:48:59.742Z,12.83
2023-04-25T13:52:05.812Z,11.47
2023-04-25T13:55:10.686Z,11.16
2023-04-25T13:58:13.477Z,10.93
2023-04-25T14:01:16.460Z,11.00
2023-04-25T14:04:19.150Z,11.17
2023-04-25T14:07:22.133Z,12.90
2023-04-25T14:10:24.969Z,14.51
2023-04-25T14:13:28.044Z,12.10
2023-04-25T14:16:32.514Z,11.85
2023-04-25T14:19:35.495Z,12.15
2023-04-25T14:22:42.443Z,16.03
2023-04-25T14:25:45.512Z,19.43
2023-04-25T14:28:48.481Z,19.04
2023-04-25T14:31:51.175Z,16.19
2023-04-25T14:34:54.203Z,20.21
2023-04-25T14:37:56.911Z,23.57
2023-04-25T14:40:59.873Z,25.04
2023-04-25T14:44:02.744Z,25.14
2023-04-25T14:47:09.186Z,25.74
2023-04-25T14:50:11.968Z,26.06
2023-04-25T14:53:14.752Z,25.63
2023-04-25T14:56:18.782Z,25.30
2023-04-25T14:59:21.874Z,25.40
2023-04-25T15:02:25.725Z,25.46
2023-04-25T15:05:28.413Z,25.29
2023-04-25T15:08:31.539Z,25.87
2023-04-25T15:11:34.340Z,25.22
2023-04-25T15:14:37.283Z,25.57
2023-04-25T15:17:42.558Z,26.02
2023-04-25T15:20:45.637Z,25.89
2023-04-25T15:23:48.470Z,25.32
2023-04-25T15:26:51.646Z,26.78
2023-04-25T15:29:54.541Z,27.57
2023-04-25T15:32:57.307Z,28.12
2023-04-25T15:35:59.964Z,28.60
2023-04-25T15:39:02.803Z,28.93
2023-04-25T15:42:05.783Z,29.41
2023-04-25T15:45:10.248Z,30.02
2023-04-25T15:48:12.785Z,30.53
2023-04-25T15:51:16.107Z,31.17
2023-04-25T15:54:19.178Z,31.18
2023-04-25T15:57:22.053Z,31.78
2023-04-25T16:00:26.654Z,33.98
2023-04-25T16:03:29.631Z,36.17
2023-04-25T16:06:32.535Z,38.12
2023-04-25T16:09:36.426Z,38.74
2023-04-25T16:12:42.247Z,39.30
2023-04-25T16:15:46.268Z,40.03
2023-04-25T16:18:49.080Z,40.61
2023-04-25T16:21:52.230Z,41.57
2023-04-25T16:24:55.758Z,42.30
2023-04-25T16:27:59.934Z,42.87
2023-04-25T16:31:02.737Z,43.65
2023-04-25T16:34:07.086Z,43.69
2023-04-25T16:37:10.666Z,44.16
2023-04-25T16:40:13.489Z,45.18
2023-04-25T16:43:19.942Z,45.45
2023-04-25T16:46:23.991Z,45.25
2023-04-25T16:49:27.104Z,44.81
2023-04-25T16:52:29.898Z,45.62
2023-04-25T16:55:33.682Z,46.70
2023-04-25T16:58:36.761Z,46.00
2023-04-25T17:01:40.143Z,45.61
2023-04-25T17:04:43.166Z,45.84
2023-04-25T17:07:46.357Z,46.21
2023-04-25T17:10:51.145Z,46.93
2023-04-25T17:13:54.015Z,48.04
2023-04-25T17:16:58.445Z,47.32
2023-04-25T17:20:01.674Z,47.58
2023-04-25T17:23:04.514Z,48.25
2023-04-25T17:26:07.951Z,48.07
2023-04-25T17:29:11.469Z,48.38
2023-04-25T17:32:17.370Z,48.42
2023-04-25T17:35:21.455Z,48.21
2023-04-25T17:38:24.178Z,47.87
2023-04-25T17:41:27.391Z,47.76
2023-04-25T17:44:31.788Z,47.71
2023-04-25T17:47:35.928Z,47.99
2023-04-25T17:50:39.440Z,48.22
2023-04-25T17:53:42.408Z,48.57
2023-04-25T17:56:45.560Z,49.18
2023-04-25T17:59:51.483Z,49.18
2023-04-25T18:02:54.798Z,49.45
2023-04-25T18:05:58.039Z,49.01
2023-04-25T18:09:01.991Z,49.55
2023-04-25T18:12:05.175Z,49.58
2023-04-25T18:15:08.933Z,49.97
2023-04-25T18:18:19.940Z,50.51
2023-04-25T18:21:22.977Z,50.67
2023-04-25T18:24:28.707Z,51.41
2023-04-25T18:27:32.060Z,51.93
2023-04-25T18:30:35.973Z,52.14
2023-04-25T18:33:39.464Z,52.59
2023-04-25T18:36:42.880Z,52.34
2023-04-25T18:39:46.036Z,52.14
2023-04-25T18:42:49.181Z,51.92
2023-04-25T18:45:52.444Z,51.73
2023-04-25T18:49:02.211Z,52.35
2023-04-25T18:52:08.993Z,52.27
2023-04-25T18:55:12.771Z,52.23
2023-04-25T18:58:17.109Z,52.24
2023-04-25T19:01:21.364Z,52.25
2023-04-25T19:04:24.715Z,51.81
2023-04-25T19:07:28.964Z,52.28
2023-04-25T19:10:37.247Z,52.12
2023-04-25T19:13:40.719Z,52.53
2023-04-25T19:16:44.721Z,52.98
2023-04-25T19:19:48.563Z,53.20
2023-04-25T19:22:57.269Z,53.62
2023-04-25T19:26:01.256Z,54.23
2023-04-25T19:29:10.632Z,53.87
2023-04-25T19:32:15.309Z,54.51
2023-04-25T19:35:19.566Z,54.55
2023-04-25T19:38:24.484Z,54.61
2023-04-25T19:41:29.152Z,54.45
2023-04-25T19:44:32.633Z,55.09
2023-04-25T19:47:38.922Z,54.99
2023-04-25T19:50:42.940Z,54.76
2023-04-25T19:53:46.973Z,55.21
2023-04-25T19:56:50.191Z,55.76
2023-04-25T19:59:53.134Z,56.08
2023-04-25T20:02:57.037Z,56.35
2023-04-25T20:06:00.244Z,56.05
2023-04-25T20:09:05.635Z,55.37
2023-04-25T20:12:11.897Z,55.47
2023-04-25T20:15:18.410Z,54.77
2023-04-25T20:18:22.882Z,54.50
2023-04-25T20:21:25.709Z,53.99
2023-04-25T20:24:29.256Z,54.24
2023-04-25T20:27:32.971Z,54.61
2023-04-25T20:30:37.801Z,55.31
2023-04-25T20:33:41.798Z,55.49
2023-04-25T20:36:44.684Z,55.53
2023-04-25T20:39:47.848Z,56.05
2023-04-25T20:42:51.892Z,55.77
2023-04-25T20:45:55.069Z,55.96
2023-04-25T20:48:58.495Z,55.92
2023-04-25T20:52:01.322Z,55.91
2023-04-25T20:55:05.496Z,56.18
2023-04-25T20:58:08.224Z,56.29
2023-04-25T21:01:11.579Z,56.14
2023-04-25T21:04:15.630Z,56.19
2023-04-25T21:07:18.493Z,56.71
2023-04-25T21:10:21.456Z,56.98
2023-04-25T21:13:24.190Z,56.74
2023-04-25T21:16:27.030Z,56.66
2023-04-25T21:19:31.040Z,56.52
2023-04-25T21:22:33.847Z,55.87
2023-04-25T21:25:36.615Z,56.35
2023-04-25T21:28:39.506Z,57.22
2023-04-25T21:31:43.729Z,57.27
2023-04-25T21:34:46.426Z,57.86
2023-04-25T21:37:49.752Z,58.10
2023-04-25T21:40:52.882Z,57.85
2023-04-25T21:43:56.240Z,58.10
2023-04-25T21:46:58.862Z,57.77
2023-04-25T21:50:01.947Z,58.03
2023-04-25T21:53:06.236Z,58.32
2023-04-25T21:56:09.649Z,58.06
2023-04-25T21:59:12.263Z,58.16
2023-04-25T22:02:15.106Z,58.64
2023-04-25T22:05:21.137Z,58.84
2023-04-25T22:08:24.041Z,59.25
2023-04-25T22:11:28.614Z,59.23
2023-04-25T22:14:31.771Z,59.45
2023-04-25T22:17:34.980Z,59.77
2023-04-25T22:20:37.869Z,60.08
2023-04-25T22:23:40.871Z,59.88
2023-04-25T22:26:43.483Z,60.05
2023-04-25T22:29:46.658Z,59.67
2023-04-25T22:32:49.427Z,59.42
2023-04-25T22:35:52.234Z,59.42
2023-04-25T22:38:55.248Z,58.98
2023-04-25T22:41:59.209Z,58.88
2023-04-25T22:45:02.068Z,59.18
2023-04-25T22:48:05.101Z,58.87
2023-04-25T22:51:07.896Z,58.96
2023-04-25T22:54:10.581Z,58.91
2023-04-25T22:57:13.370Z,59.64
2023-04-25T23:00:19.242Z,59.94
2023-04-25T23:03:22.614Z,59.87
2023-04-25T23:06:26.577Z,59.66
2023-04-25T23:09:29.196Z,59.95
2023-04-25T23:12:31.844Z,59.81
2023-04-25T23:15:34.939Z,59.72
2023-04-25T23:18:39.396Z,59.37
2023-04-25T23:21:42.300Z,58.67
2023-04-25T23:24:46.078Z,58.61
2023-04-25T23:27:48.695Z,58.29
2023-04-25T23:30:52.865Z,58.02
2023-04-25T23:33:55.700Z,58.20
2023-04-25T23:37:01.652Z,58.02
2023-04-25T23:40:12.382Z,57.89
2023-04-25T23:43:16.438Z,57.92
2023-04-25T23:46:19.380Z,58.32
2023-04-25T23:49:22.735Z,58.02
2023-04-25T23:52:27.766Z,57.88
2023-04-25T23:55:31.052Z,58.10
2023-04-25T23:58:33.762Z,58.05
